KGSH

Goshen Municipal Airport

Goshen, Indiana, USA
METAR KGSH 182253Z AUTO 34007KT 10SM CLR 26/20 A2995 RMK AO2 SLP139 T02560200
Observed Flight Rules
Aug-18 @ 22:53 UTC (53 minutes ago) Visual Flight Rules
Wind Visibility Clouds
340° at 7 knots 10 miles
  • Clear skies
Temperatures Readings
Current 26°C / 79°F
Dewpoint 20°C / 68°F
Humidity 70%
Altimeter 29.95" Hg
Pressure 1013.9 hPa
Elevation 252
METAR KGSH 182253Z AUTO 34007KT 10SM CLR 26/20 A2995 RMK AO2 SLP139 T02560200
Observed Flight Rules
Aug-18 @ 22:53 UTC
(53 minutes ago)
VFR
Wind Visibility
340° at 7 knots 10 miles
Clouds
  • Clear skies
Temperature Dewpoint
26°C / 79°F 20°C / 68°F
Humidity Altimeter Pressure
70% 29.95" Hg 1013.9 hPa